PBU weather

Putao Airport
Putao, Kachin State, Burma

Public forecast

Using degrees Celsius for public forecast. Weather courtesy of forecast.io.

Closest aviation weather report (METAR) to Putao Airport

Report is more than 6 hours old.

Closest report is Diqing Airport, 123.0 nm (227.8 km) ENE. Retrieved 2011/07/04 06:00 UTC (9 years ago):

ZPDQ 040600Z 18007MPS 9999 SCT020 BKN040 19/09 Q1027 NOSIG

Closest aviation forecast (TAF) to Putao Airport

Forecast is more than 12 hours old.

Closest forecast is Along Airport, 148.4 nm (274.8 km) WNW. Retrieved 2019/09/10 06:30 UTC (7 months ago):

TAF VEAN 100330Z 1006/1018 09008KT 6000 SCT020 SCT025 BKN090 TEMPO 1014/1018 3000 TSRA SCT025 FEW030CB BKN090